BCS5082 ESSA-ESGG
Flight info
| Callsign | BCS5082 |
|---|---|
| Flight time | 0h 45m |
| Altitude | 30000 |
| Route | ARS N623 BEDLA N866 LAPSI DCT MOXAM |
| Aircraft | RJ1H/M-SDFGIRWY/LB1 |
Departure
| Time | 2026-05-05 19:11 |
|---|---|
| Airport | Stockholm-Arlanda Airport (ESSA) |
Arrival
| Time | 2026-05-05 19:57 |
|---|---|
| Airport | Göteborg Landvetter Airport (ESGG) |
| Time | Latitude | Longitude | Altitude | Speed | Heading |
|---|---|---|---|---|---|
| 2026-05-05 18:44 | 59.63967 | 17.92688 | 112 ft | 0 kts | 207° |
| 2026-05-05 19:04 | 59.63964 | 17.92687 | 84 ft | 1 kts | 182° |
| 2026-05-05 19:04 | 59.63964 | 17.92708 | 109 ft | 4 kts | 31° |
| 2026-05-05 19:05 | 59.63998 | 17.92724 | 111 ft | 7 kts | 24° |
| 2026-05-05 19:05 | 59.64059 | 17.92781 | 111 ft | 12 kts | 26° |
| 2026-05-05 19:05 | 59.64129 | 17.92764 | 112 ft | 11 kts | 306° |
| 2026-05-05 19:05 | 59.64161 | 17.92641 | 113 ft | 10 kts | 298° |
| 2026-05-05 19:06 | 59.64194 | 17.92513 | 112 ft | 11 kts | 297° |
| 2026-05-05 19:06 | 59.64234 | 17.92361 | 117 ft | 13 kts | 297° |
| 2026-05-05 19:06 | 59.64281 | 17.92180 | 114 ft | 16 kts | 297° |
| 2026-05-05 19:06 | 59.64318 | 17.92042 | 113 ft | 10 kts | 297° |
| 2026-05-05 19:07 | 59.64363 | 17.91922 | 112 ft | 11 kts | 346° |
| 2026-05-05 19:07 | 59.64443 | 17.91943 | 111 ft | 12 kts | 10° |
| 2026-05-05 19:07 | 59.64529 | 17.91974 | 110 ft | 13 kts | 10° |
| 2026-05-05 19:07 | 59.64618 | 17.92006 | 109 ft | 14 kts | 10° |
| 2026-05-05 19:08 | 59.64720 | 17.92043 | 107 ft | 16 kts | 10° |
| 2026-05-05 19:08 | 59.64838 | 17.92085 | 106 ft | 18 kts | 10° |
| 2026-05-05 19:08 | 59.64966 | 17.92131 | 106 ft | 19 kts | 10° |
| 2026-05-05 19:08 | 59.65100 | 17.92180 | 106 ft | 20 kts | 10° |
| 2026-05-05 19:09 | 59.65238 | 17.92231 | 106 ft | 21 kts | 11° |
| 2026-05-05 19:09 | 59.65387 | 17.92286 | 104 ft | 22 kts | 10° |
| 2026-05-05 19:09 | 59.65542 | 17.92340 | 104 ft | 23 kts | 10° |
| 2026-05-05 19:09 | 59.65701 | 17.92398 | 104 ft | 23 kts | 10° |
| 2026-05-05 19:10 | 59.65794 | 17.92432 | 105 ft | 12 kts | 10° |
| 2026-05-05 19:10 | 59.65880 | 17.92449 | 107 ft | 12 kts | 344° |
| 2026-05-05 19:10 | 59.65915 | 17.92316 | 110 ft | 11 kts | 278° |
| 2026-05-05 19:10 | 59.65924 | 17.92175 | 114 ft | 10 kts | 269° |
| 2026-05-05 19:11 | 59.65842 | 17.92091 | 111 ft | 29 kts | 188° |
| 2026-05-05 19:11 | 59.65441 | 17.91944 | 106 ft | 94 kts | 191° |
| 2026-05-05 19:11 | 59.64599 | 17.91631 | 258 ft | 140 kts | 190° |
| 2026-05-05 19:11 | 59.63655 | 17.91273 | 1098 ft | 133 kts | 193° |
| 2026-05-05 19:12 | 59.62702 | 17.90969 | 1759 ft | 150 kts | 193° |
| 2026-05-05 19:12 | 59.61741 | 17.89970 | 2063 ft | 168 kts | 233° |
| 2026-05-05 19:12 | 59.60970 | 17.88046 | 2361 ft | 187 kts | 234° |
| 2026-05-05 19:12 | 59.60167 | 17.86024 | 3108 ft | 187 kts | 236° |
| 2026-05-05 19:13 | 59.59356 | 17.83900 | 3672 ft | 199 kts | 236° |
| 2026-05-05 19:13 | 59.58536 | 17.81639 | 4258 ft | 208 kts | 242° |
| 2026-05-05 19:13 | 59.57823 | 17.79043 | 4682 ft | 223 kts | 245° |
| 2026-05-05 19:13 | 59.57119 | 17.76204 | 5129 ft | 236 kts | 249° |
| 2026-05-05 19:14 | 59.56814 | 17.73016 | 5708 ft | 240 kts | 270° |
| 2026-05-05 19:14 | 59.56810 | 17.69703 | 6433 ft | 243 kts | 271° |
| 2026-05-05 19:14 | 59.56812 | 17.66369 | 7188 ft | 244 kts | 272° |
| 2026-05-05 19:14 | 59.56848 | 17.63013 | 8001 ft | 245 kts | 271° |
| 2026-05-05 19:15 | 59.56604 | 17.59667 | 8855 ft | 249 kts | 258° |
| 2026-05-05 19:15 | 59.56156 | 17.56343 | 9769 ft | 252 kts | 257° |
| 2026-05-05 19:15 | 59.55691 | 17.53018 | 10759 ft | 251 kts | 256° |
| 2026-05-05 19:15 | 59.55218 | 17.49707 | 11821 ft | 251 kts | 256° |
| 2026-05-05 19:16 | 59.54739 | 17.46407 | 12871 ft | 251 kts | 256° |
| 2026-05-05 19:16 | 59.54269 | 17.43069 | 13642 ft | 259 kts | 257° |
| 2026-05-05 19:16 | 59.53775 | 17.39479 | 13809 ft | 283 kts | 257° |
| 2026-05-05 19:16 | 59.53250 | 17.35606 | 13866 ft | 299 kts | 257° |
| 2026-05-05 19:17 | 59.52714 | 17.31650 | 14287 ft | 297 kts | 257° |
| 2026-05-05 19:17 | 59.52187 | 17.27749 | 14950 ft | 294 kts | 257° |
| 2026-05-05 19:17 | 59.51666 | 17.23887 | 15570 ft | 291 kts | 257° |
| 2026-05-05 19:17 | 59.51137 | 17.20048 | 16182 ft | 288 kts | 256° |
| 2026-05-05 19:18 | 59.50613 | 17.16252 | 16790 ft | 286 kts | 256° |
| 2026-05-05 19:18 | 59.50097 | 17.12492 | 17406 ft | 284 kts | 256° |
| 2026-05-05 19:18 | 59.49577 | 17.08760 | 18035 ft | 282 kts | 256° |
| 2026-05-05 19:18 | 59.49066 | 17.05044 | 18505 ft | 283 kts | 256° |
| 2026-05-05 19:19 | 59.48539 | 17.01285 | 18883 ft | 286 kts | 256° |
| 2026-05-05 19:19 | 59.48007 | 16.97499 | 19263 ft | 288 kts | 256° |
| 2026-05-05 19:19 | 59.47469 | 16.93688 | 19652 ft | 290 kts | 256° |
| 2026-05-05 19:19 | 59.46929 | 16.89840 | 20035 ft | 293 kts | 256° |
| 2026-05-05 19:20 | 59.46384 | 16.85970 | 20409 ft | 295 kts | 256° |
| 2026-05-05 19:20 | 59.45834 | 16.82058 | 20778 ft | 297 kts | 256° |
| 2026-05-05 19:20 | 59.45282 | 16.78122 | 21158 ft | 300 kts | 256° |
| 2026-05-05 19:20 | 59.44727 | 16.74164 | 21527 ft | 302 kts | 256° |
| 2026-05-05 19:21 | 59.44168 | 16.70165 | 21884 ft | 304 kts | 256° |
| 2026-05-05 19:21 | 59.43606 | 16.66140 | 22239 ft | 307 kts | 256° |
| 2026-05-05 19:21 | 59.43040 | 16.62089 | 22590 ft | 309 kts | 256° |
| 2026-05-05 19:21 | 59.42472 | 16.58014 | 22938 ft | 311 kts | 256° |
| 2026-05-05 19:22 | 59.41891 | 16.53897 | 23271 ft | 313 kts | 256° |
| 2026-05-05 19:22 | 59.41305 | 16.49820 | 23585 ft | 315 kts | 255° |
| 2026-05-05 19:22 | 59.40699 | 16.45618 | 23888 ft | 317 kts | 255° |
| 2026-05-05 19:22 | 59.40100 | 16.41450 | 24181 ft | 318 kts | 255° |
| 2026-05-05 19:23 | 59.39497 | 16.37265 | 24459 ft | 320 kts | 256° |
| 2026-05-05 19:23 | 59.38887 | 16.33043 | 24716 ft | 322 kts | 255° |
| 2026-05-05 19:23 | 59.38277 | 16.28821 | 25055 ft | 321 kts | 255° |
| 2026-05-05 19:23 | 59.37667 | 16.24606 | 25411 ft | 321 kts | 255° |
| 2026-05-05 19:24 | 59.36947 | 16.20535 | 25740 ft | 322 kts | 249° |
| 2026-05-05 19:24 | 59.35953 | 16.16600 | 26077 ft | 322 kts | 246° |
| 2026-05-05 19:24 | 59.34903 | 16.12720 | 26412 ft | 322 kts | 245° |
| 2026-05-05 19:24 | 59.33828 | 16.08872 | 26757 ft | 322 kts | 245° |
| 2026-05-05 19:25 | 59.32752 | 16.05040 | 27085 ft | 321 kts | 245° |
| 2026-05-05 19:25 | 59.31685 | 16.01203 | 27435 ft | 320 kts | 245° |
| 2026-05-05 19:25 | 59.30625 | 15.97379 | 27763 ft | 319 kts | 245° |
| 2026-05-05 19:25 | 59.29565 | 15.93564 | 28091 ft | 319 kts | 245° |
| 2026-05-05 19:26 | 59.28507 | 15.89757 | 28415 ft | 318 kts | 245° |
| 2026-05-05 19:26 | 59.27450 | 15.85963 | 28724 ft | 318 kts | 245° |
| 2026-05-05 19:26 | 59.26401 | 15.82162 | 29033 ft | 317 kts | 246° |
| 2026-05-05 19:26 | 59.25357 | 15.78368 | 29342 ft | 317 kts | 246° |
| 2026-05-05 19:27 | 59.24311 | 15.74579 | 29646 ft | 316 kts | 246° |
| 2026-05-05 19:27 | 59.23269 | 15.70816 | 29834 ft | 314 kts | 246° |
| 2026-05-05 19:27 | 59.21149 | 15.63178 | 29898 ft | 326 kts | 245° |
| 2026-05-05 19:28 | 59.18956 | 15.55346 | 29904 ft | 329 kts | 245° |
| 2026-05-05 19:28 | 59.16758 | 15.47525 | 29905 ft | 329 kts | 245° |
| 2026-05-05 19:29 | 59.14552 | 15.39691 | 29910 ft | 331 kts | 245° |
| 2026-05-05 19:29 | 59.12332 | 15.31827 | 29910 ft | 332 kts | 245° |
| 2026-05-05 19:30 | 59.10105 | 15.23952 | 29910 ft | 333 kts | 245° |
| 2026-05-05 19:30 | 59.07867 | 15.16043 | 29912 ft | 335 kts | 245° |
| 2026-05-05 19:31 | 59.05619 | 15.08112 | 29907 ft | 334 kts | 245° |
| 2026-05-05 19:31 | 59.03371 | 15.00194 | 29913 ft | 335 kts | 245° |
| 2026-05-05 19:32 | 59.01114 | 14.92280 | 29913 ft | 336 kts | 245° |
| 2026-05-05 19:32 | 58.98828 | 14.84358 | 29911 ft | 336 kts | 245° |
| 2026-05-05 19:33 | 58.96537 | 14.76453 | 29916 ft | 337 kts | 245° |
| 2026-05-05 19:33 | 58.94238 | 14.68540 | 29920 ft | 337 kts | 244° |
| 2026-05-05 19:34 | 58.91929 | 14.60623 | 29917 ft | 338 kts | 244° |
| 2026-05-05 19:35 | 58.87916 | 14.49326 | 29916 ft | 344 kts | 236° |
| 2026-05-05 19:35 | 58.84768 | 14.42339 | 29922 ft | 345 kts | 234° |
| 2026-05-05 19:36 | 58.81570 | 14.35416 | 29924 ft | 345 kts | 234° |
| 2026-05-05 19:36 | 58.78412 | 14.28449 | 29925 ft | 345 kts | 234° |
| 2026-05-05 19:37 | 58.75781 | 14.22653 | 29928 ft | 346 kts | 234° |
| 2026-05-05 19:37 | 58.72604 | 14.15685 | 29931 ft | 346 kts | 234° |
| 2026-05-05 19:38 | 58.69421 | 14.08741 | 29934 ft | 346 kts | 234° |
| 2026-05-05 19:38 | 58.67841 | 14.05280 | 29470 ft | 343 kts | 234° |
| 2026-05-05 19:38 | 58.66261 | 14.01816 | 28385 ft | 347 kts | 234° |
| 2026-05-05 19:38 | 58.64651 | 13.98333 | 27357 ft | 350 kts | 234° |
| 2026-05-05 19:39 | 58.63023 | 13.94822 | 26329 ft | 352 kts | 234° |
| 2026-05-05 19:39 | 58.61387 | 13.91296 | 25293 ft | 355 kts | 233° |
| 2026-05-05 19:39 | 58.59744 | 13.87749 | 24313 ft | 356 kts | 233° |
| 2026-05-05 19:39 | 58.58108 | 13.84216 | 23465 ft | 354 kts | 233° |
| 2026-05-05 19:40 | 58.56484 | 13.80719 | 22686 ft | 347 kts | 234° |
| 2026-05-05 19:40 | 58.54889 | 13.77293 | 21887 ft | 342 kts | 234° |
| 2026-05-05 19:40 | 58.53326 | 13.73904 | 21083 ft | 338 kts | 234° |
| 2026-05-05 19:40 | 58.51775 | 13.70558 | 20294 ft | 334 kts | 234° |
| 2026-05-05 19:41 | 58.50237 | 13.67248 | 19506 ft | 331 kts | 234° |
| 2026-05-05 19:41 | 58.48723 | 13.63969 | 18714 ft | 328 kts | 234° |
| 2026-05-05 19:41 | 58.47210 | 13.60738 | 17899 ft | 325 kts | 234° |
| 2026-05-05 19:41 | 58.45713 | 13.57537 | 17030 ft | 322 kts | 233° |
| 2026-05-05 19:42 | 58.44220 | 13.54358 | 16165 ft | 320 kts | 233° |
| 2026-05-05 19:42 | 58.42736 | 13.51195 | 15340 ft | 318 kts | 233° |
| 2026-05-05 19:42 | 58.41270 | 13.48065 | 14538 ft | 316 kts | 233° |
| 2026-05-05 19:42 | 58.39824 | 13.44977 | 14079 ft | 306 kts | 233° |
| 2026-05-05 19:43 | 58.38419 | 13.41981 | 13388 ft | 302 kts | 233° |
| 2026-05-05 19:43 | 58.37004 | 13.38969 | 13048 ft | 306 kts | 233° |
| 2026-05-05 19:43 | 58.35578 | 13.35975 | 12882 ft | 304 kts | 233° |
| 2026-05-05 19:43 | 58.34152 | 13.32990 | 12760 ft | 305 kts | 232° |
| 2026-05-05 19:44 | 58.32725 | 13.30012 | 12625 ft | 304 kts | 232° |
| 2026-05-05 19:44 | 58.31303 | 13.27035 | 12494 ft | 304 kts | 233° |
| 2026-05-05 19:44 | 58.29885 | 13.24036 | 12360 ft | 304 kts | 233° |
| 2026-05-05 19:44 | 58.28462 | 13.21055 | 12227 ft | 305 kts | 232° |
| 2026-05-05 19:45 | 58.27042 | 13.18076 | 12093 ft | 304 kts | 232° |
| 2026-05-05 19:45 | 58.25626 | 13.15107 | 11964 ft | 304 kts | 232° |
| 2026-05-05 19:45 | 58.24209 | 13.12135 | 11829 ft | 304 kts | 232° |
| 2026-05-05 19:45 | 58.22792 | 13.09154 | 11693 ft | 303 kts | 232° |
| 2026-05-05 19:46 | 58.21382 | 13.06187 | 11563 ft | 303 kts | 232° |
| 2026-05-05 19:46 | 58.19972 | 13.03214 | 11426 ft | 303 kts | 232° |
| 2026-05-05 19:46 | 58.18567 | 13.00248 | 11301 ft | 303 kts | 232° |
| 2026-05-05 19:46 | 58.17156 | 12.97281 | 11175 ft | 303 kts | 232° |
| 2026-05-05 19:47 | 58.15729 | 12.94343 | 10937 ft | 304 kts | 231° |
| 2026-05-05 19:47 | 58.14295 | 12.91401 | 10559 ft | 303 kts | 231° |
| 2026-05-05 19:47 | 58.12869 | 12.88469 | 10178 ft | 302 kts | 231° |
| 2026-05-05 19:47 | 58.11452 | 12.85529 | 9807 ft | 302 kts | 231° |
| 2026-05-05 19:48 | 58.10036 | 12.82606 | 9404 ft | 302 kts | 231° |
| 2026-05-05 19:48 | 58.08624 | 12.79676 | 8985 ft | 301 kts | 231° |
| 2026-05-05 19:48 | 58.07212 | 12.76738 | 8579 ft | 301 kts | 231° |
| 2026-05-05 19:48 | 58.05809 | 12.73818 | 8183 ft | 301 kts | 230° |
| 2026-05-05 19:49 | 58.04408 | 12.70930 | 7787 ft | 293 kts | 230° |
| 2026-05-05 19:49 | 58.03058 | 12.68142 | 7389 ft | 284 kts | 230° |
| 2026-05-05 19:49 | 58.01740 | 12.65423 | 6995 ft | 277 kts | 230° |
| 2026-05-05 19:49 | 58.00442 | 12.62781 | 6597 ft | 273 kts | 229° |
| 2026-05-05 19:50 | 57.99147 | 12.60129 | 6122 ft | 274 kts | 229° |
| 2026-05-05 19:50 | 57.97867 | 12.57537 | 5839 ft | 269 kts | 225° |
| 2026-05-05 19:50 | 57.96321 | 12.55578 | 5631 ft | 268 kts | 209° |
| 2026-05-05 19:50 | 57.94650 | 12.54015 | 5532 ft | 267 kts | 208° |
| 2026-05-05 19:51 | 57.92999 | 12.52415 | 5438 ft | 268 kts | 208° |
| 2026-05-05 19:51 | 57.91330 | 12.50849 | 5307 ft | 267 kts | 207° |
| 2026-05-05 19:51 | 57.89659 | 12.49328 | 5171 ft | 268 kts | 207° |
| 2026-05-05 19:51 | 57.87993 | 12.47827 | 5054 ft | 260 kts | 206° |
| 2026-05-05 19:52 | 57.86388 | 12.46387 | 4772 ft | 255 kts | 206° |
| 2026-05-05 19:52 | 57.84787 | 12.44928 | 4401 ft | 255 kts | 207° |
| 2026-05-05 19:52 | 57.83245 | 12.43502 | 4065 ft | 253 kts | 206° |
| 2026-05-05 19:52 | 57.81649 | 12.42040 | 3686 ft | 238 kts | 207° |
| 2026-05-05 19:53 | 57.80287 | 12.40785 | 3376 ft | 201 kts | 207° |
| 2026-05-05 19:53 | 57.79073 | 12.39671 | 3150 ft | 191 kts | 207° |
| 2026-05-05 19:53 | 57.77913 | 12.38606 | 2901 ft | 187 kts | 207° |
| 2026-05-05 19:53 | 57.76734 | 12.37525 | 2623 ft | 185 kts | 207° |
| 2026-05-05 19:54 | 57.75579 | 12.36466 | 2363 ft | 182 kts | 207° |
| 2026-05-05 19:54 | 57.74499 | 12.35480 | 2121 ft | 164 kts | 207° |
| 2026-05-05 19:54 | 57.73493 | 12.34558 | 1910 ft | 159 kts | 207° |
| 2026-05-05 19:54 | 57.72546 | 12.33694 | 1681 ft | 141 kts | 208° |
| 2026-05-05 19:55 | 57.71726 | 12.32949 | 1464 ft | 124 kts | 208° |
| 2026-05-05 19:55 | 57.70971 | 12.32255 | 1286 ft | 124 kts | 207° |
| 2026-05-05 19:55 | 57.70175 | 12.31523 | 1117 ft | 128 kts | 207° |
| 2026-05-05 19:55 | 57.69384 | 12.30823 | 959 ft | 127 kts | 207° |
| 2026-05-05 19:56 | 57.68593 | 12.30097 | 765 ft | 122 kts | 208° |
| 2026-05-05 19:56 | 57.67853 | 12.29412 | 599 ft | 120 kts | 207° |
| 2026-05-05 19:56 | 57.67155 | 12.28777 | 514 ft | 94 kts | 207° |
| 2026-05-05 19:56 | 57.66711 | 12.28371 | 512 ft | 53 kts | 205° |
| 2026-05-05 19:57 | 57.66442 | 12.28128 | 511 ft | 28 kts | 206° |
| 2026-05-05 19:57 | 57.66330 | 12.28025 | 510 ft | 26 kts | 206° |
| 2026-05-05 19:57 | 57.66163 | 12.27934 | 508 ft | 15 kts | 150° |
| 2026-05-05 19:57 | 57.66107 | 12.28090 | 508 ft | 12 kts | 109° |
| 2026-05-05 19:58 | 57.66125 | 12.28182 | 509 ft | 0 kts | 30° |
| 2026-05-05 19:58 | 57.66125 | 12.28183 | 509 ft | 1 kts | 30° |
| 2026-05-05 19:58 | 57.66160 | 12.28212 | 509 ft | 10 kts | 24° |
| 2026-05-05 19:58 | 57.66240 | 12.28287 | 510 ft | 17 kts | 25° |
| 2026-05-05 19:59 | 57.66305 | 12.28345 | 510 ft | 21 kts | 27° |
| 2026-05-05 19:59 | 57.66450 | 12.28478 | 511 ft | 26 kts | 26° |
| 2026-05-05 19:59 | 57.66622 | 12.28634 | 512 ft | 28 kts | 26° |
| 2026-05-05 19:59 | 57.66792 | 12.28788 | 512 ft | 27 kts | 26° |
| 2026-05-05 20:00 | 57.66957 | 12.28938 | 513 ft | 26 kts | 26° |
| 2026-05-05 20:00 | 57.67114 | 12.29081 | 514 ft | 21 kts | 26° |
| 2026-05-05 20:00 | 57.67227 | 12.29182 | 514 ft | 15 kts | 24° |
| 2026-05-05 20:00 | 57.67267 | 12.29240 | 514 ft | 6 kts | 84° |
| 2026-05-05 20:01 | 57.67254 | 12.29323 | 515 ft | 7 kts | 115° |
| 2026-05-05 20:01 | 57.67228 | 12.29423 | 516 ft | 10 kts | 116° |
| 2026-05-05 20:01 | 57.67202 | 12.29521 | 516 ft | 5 kts | 109° |
| 2026-05-05 20:01 | 57.67186 | 12.29606 | 516 ft | 7 kts | 116° |
| 2026-05-05 20:02 | 57.67171 | 12.29667 | 516 ft | 2 kts | 115° |
| 2026-05-05 20:02 | 57.67170 | 12.29670 | 516 ft | 0 kts | 115° |